X  Schlie├čen METAR Luftfahrt Wetterdaten     EHKD De Kooy Airport
Temperatur
21°C Temperatur
18°C Taupunkt
83% Feuchtigkeit



Wind
23 KM/S
14 MPS
6 M/S
12 KTS



20°
NNO
Aktuelle Wetterlage

Klar Klar
Luftdruck 1013.88 (hPa) - 29.94 (inHg)
Sichtweite 6 (Meile) - 9.7 (Km)
Flughafen
Flughafen Code EHKD

Position : De Kooy Airport
Entfernung: 34 (Km)

Metar:
EHKD 251755Z AUTO 02012KT 350V050 9999 NCD 21/18 Q1014 BLU NOSIG

Zeit: 25-06-2024 19:55 CEST